sensor_id;sensor_type;location;lat;lon;timestamp;temperature;humidity
5027;DHT22;2532;52.480;13.354;2024-02-21T00:02:21;10.40;99.90
5027;DHT22;2532;52.480;13.354;2024-02-21T00:04:48;10.40;99.90
5027;DHT22;2532;52.480;13.354;2024-02-21T00:07:15;10.40;99.90
5027;DHT22;2532;52.480;13.354;2024-02-21T00:09:42;10.30;99.90
5027;DHT22;2532;52.480;13.354;2024-02-21T00:12:09;10.30;99.90
5027;DHT22;2532;52.480;13.354;2024-02-21T00:14:37;10.30;99.90
5027;DHT22;2532;52.480;13.354;2024-02-21T00:17:05;10.30;99.90
5027;DHT22;2532;52.480;13.354;2024-02-21T00:19:34;10.30;99.90
5027;DHT22;2532;52.480;13.354;2024-02-21T00:22:00;10.30;99.90
5027;DHT22;2532;52.480;13.354;2024-02-21T00:24:27;10.50;99.90
5027;DHT22;2532;52.480;13.354;2024-02-21T00:26:54;10.30;99.90
5027;DHT22;2532;52.480;13.354;2024-02-21T00:29:21;10.30;99.90
5027;DHT22;2532;52.480;13.354;2024-02-21T00:31:50;10.30;99.90
5027;DHT22;2532;52.480;13.354;2024-02-21T00:34:17;10.30;99.90
5027;DHT22;2532;52.480;13.354;2024-02-21T00:36:43;10.30;99.90
5027;DHT22;2532;52.480;13.354;2024-02-21T00:39:10;10.30;99.90
5027;DHT22;2532;52.480;13.354;2024-02-21T00:41:37;10.20;99.90
5027;DHT22;2532;52.480;13.354;2024-02-21T00:44:04;10.20;99.90
5027;DHT22;2532;52.480;13.354;2024-02-21T00:46:32;10.20;99.90
5027;DHT22;2532;52.480;13.354;2024-02-21T00:49:00;10.20;99.90
5027;DHT22;2532;52.480;13.354;2024-02-21T00:51:27;10.20;99.90
5027;DHT22;2532;52.480;13.354;2024-02-21T00:53:54;10.20;99.90
5027;DHT22;2532;52.480;13.354;2024-02-21T00:56:21;10.20;99.90
5027;DHT22;2532;52.480;13.354;2024-02-21T00:58:48;10.20;99.90
5027;DHT22;2532;52.480;13.354;2024-02-21T01:01:21;10.30;99.90
5027;DHT22;2532;52.480;13.354;2024-02-21T01:03:49;10.20;99.90
5027;DHT22;2532;52.480;13.354;2024-02-21T01:06:18;10.20;99.90
5027;DHT22;2532;52.480;13.354;2024-02-21T01:08:46;10.20;99.90
5027;DHT22;2532;52.480;13.354;2024-02-21T01:11:13;10.20;99.90
5027;DHT22;2532;52.480;13.354;2024-02-21T01:13:40;10.20;99.90
5027;DHT22;2532;52.480;13.354;2024-02-21T01:16:07;10.20;99.90
5027;DHT22;2532;52.480;13.354;2024-02-21T01:18:34;10.20;99.90
5027;DHT22;2532;52.480;13.354;2024-02-21T01:21:01;10.20;99.90
5027;DHT22;2532;52.480;13.354;2024-02-21T01:23:29;10.20;99.90
5027;DHT22;2532;52.480;13.354;2024-02-21T01:25:56;10.30;99.90
5027;DHT22;2532;52.480;13.354;2024-02-21T01:28:23;10.20;99.90
5027;DHT22;2532;52.480;13.354;2024-02-21T01:30:50;10.20;99.90
5027;DHT22;2532;52.480;13.354;2024-02-21T01:33:17;10.20;99.90
5027;DHT22;2532;52.480;13.354;2024-02-21T01:35:44;10.20;99.90
5027;DHT22;2532;52.480;13.354;2024-02-21T01:38:12;10.20;99.90
5027;DHT22;2532;52.480;13.354;2024-02-21T01:40:41;10.30;99.90
5027;DHT22;2532;52.480;13.354;2024-02-21T01:43:15;10.20;99.90
5027;DHT22;2532;52.480;13.354;2024-02-21T01:45:43;10.30;99.90
5027;DHT22;2532;52.480;13.354;2024-02-21T01:48:10;10.30;99.90
5027;DHT22;2532;52.480;13.354;2024-02-21T01:50:36;10.30;99.90
5027;DHT22;2532;52.480;13.354;2024-02-21T01:53:03;10.30;99.90
5027;DHT22;2532;52.480;13.354;2024-02-21T01:55:31;10.30;99.90
5027;DHT22;2532;52.480;13.354;2024-02-21T01:57:59;10.30;99.80
5027;DHT22;2532;52.480;13.354;2024-02-21T02:00:26;10.40;99.90
5027;DHT22;2532;52.480;13.354;2024-02-21T02:02:54;10.30;99.80
5027;DHT22;2532;52.480;13.354;2024-02-21T02:05:21;10.40;99.80
5027;DHT22;2532;52.480;13.354;2024-02-21T02:07:49;10.40;99.80
5027;DHT22;2532;52.480;13.354;2024-02-21T02:10:15;10.40;99.80
5027;DHT22;2532;52.480;13.354;2024-02-21T02:12:42;10.40;99.80
5027;DHT22;2532;52.480;13.354;2024-02-21T02:15:11;10.30;99.80
5027;DHT22;2532;52.480;13.354;2024-02-21T02:17:38;10.40;99.90
5027;DHT22;2532;52.480;13.354;2024-02-21T02:20:06;10.30;99.90
5027;DHT22;2532;52.480;13.354;2024-02-21T02:22:36;10.30;99.90
5027;DHT22;2532;52.480;13.354;2024-02-21T02:25:05;10.30;99.90
5027;DHT22;2532;52.480;13.354;2024-02-21T02:27:32;10.30;99.90
5027;DHT22;2532;52.480;13.354;2024-02-21T02:29:59;10.30;99.90
5027;DHT22;2532;52.480;13.354;2024-02-21T02:32:26;10.20;99.90
5027;DHT22;2532;52.480;13.354;2024-02-21T02:34:53;10.20;99.90
5027;DHT22;2532;52.480;13.354;2024-02-21T02:37:21;10.20;99.90
5027;DHT22;2532;52.480;13.354;2024-02-21T02:39:48;10.20;99.90
5027;DHT22;2532;52.480;13.354;2024-02-21T02:42:16;10.20;99.90
5027;DHT22;2532;52.480;13.354;2024-02-21T02:44:46;10.10;99.90
5027;DHT22;2532;52.480;13.354;2024-02-21T02:47:13;10.10;99.90
5027;DHT22;2532;52.480;13.354;2024-02-21T02:49:41;10.10;99.90
5027;DHT22;2532;52.480;13.354;2024-02-21T02:52:09;10.10;99.90
5027;DHT22;2532;52.480;13.354;2024-02-21T02:54:36;10.10;99.90
5027;DHT22;2532;52.480;13.354;2024-02-21T02:57:03;10.00;99.90
5027;DHT22;2532;52.480;13.354;2024-02-21T02:59:33;10.00;99.90
5027;DHT22;2532;52.480;13.354;2024-02-21T03:02:00;10.00;99.90
5027;DHT22;2532;52.480;13.354;2024-02-21T03:04:27;10.00;99.90
5027;DHT22;2532;52.480;13.354;2024-02-21T03:06:54;9.90;99.90
5027;DHT22;2532;52.480;13.354;2024-02-21T03:09:21;9.90;99.90
5027;DHT22;2532;52.480;13.354;2024-02-21T03:11:48;9.90;99.90
5027;DHT22;2532;52.480;13.354;2024-02-21T03:14:15;9.90;99.90
5027;DHT22;2532;52.480;13.354;2024-02-21T03:16:43;9.90;99.90
5027;DHT22;2532;52.480;13.354;2024-02-21T03:19:10;9.90;99.90
5027;DHT22;2532;52.480;13.354;2024-02-21T03:21:38;9.90;99.90
5027;DHT22;2532;52.480;13.354;2024-02-21T03:24:05;9.90;99.90
5027;DHT22;2532;52.480;13.354;2024-02-21T03:26:32;9.90;99.90
5027;DHT22;2532;52.480;13.354;2024-02-21T03:29:00;9.80;99.90
5027;DHT22;2532;52.480;13.354;2024-02-21T03:31:27;9.80;99.90
5027;DHT22;2532;52.480;13.354;2024-02-21T03:33:55;9.80;99.90
5027;DHT22;2532;52.480;13.354;2024-02-21T03:36:22;9.80;99.90
5027;DHT22;2532;52.480;13.354;2024-02-21T03:38:50;9.80;99.90
5027;DHT22;2532;52.480;13.354;2024-02-21T03:41:17;9.80;99.90
5027;DHT22;2532;52.480;13.354;2024-02-21T03:43:44;9.70;99.90
5027;DHT22;2532;52.480;13.354;2024-02-21T03:46:11;9.70;99.90
5027;DHT22;2532;52.480;13.354;2024-02-21T03:48:38;9.70;99.90
5027;DHT22;2532;52.480;13.354;2024-02-21T03:51:06;9.70;99.90
5027;DHT22;2532;52.480;13.354;2024-02-21T03:53:33;9.70;99.90
5027;DHT22;2532;52.480;13.354;2024-02-21T03:56:01;9.70;99.90
5027;DHT22;2532;52.480;13.354;2024-02-21T03:58:29;9.70;99.90
5027;DHT22;2532;52.480;13.354;2024-02-21T04:00:57;9.70;99.90
5027;DHT22;2532;52.480;13.354;2024-02-21T04:03:26;9.60;99.90
5027;DHT22;2532;52.480;13.354;2024-02-21T04:05:53;9.60;99.90
5027;DHT22;2532;52.480;13.354;2024-02-21T04:08:22;9.60;99.90
5027;DHT22;2532;52.480;13.354;2024-02-21T04:10:49;9.60;99.90
5027;DHT22;2532;52.480;13.354;2024-02-21T04:13:16;9.50;99.90
5027;DHT22;2532;52.480;13.354;2024-02-21T04:15:43;9.60;99.90
5027;DHT22;2532;52.480;13.354;2024-02-21T04:18:10;9.60;99.90
5027;DHT22;2532;52.480;13.354;2024-02-21T04:20:36;9.60;99.90
5027;DHT22;2532;52.480;13.354;2024-02-21T04:23:03;9.60;99.90
5027;DHT22;2532;52.480;13.354;2024-02-21T04:25:32;9.60;99.90
5027;DHT22;2532;52.480;13.354;2024-02-21T04:27:59;9.50;99.90
5027;DHT22;2532;52.480;13.354;2024-02-21T04:30:26;9.50;99.90
5027;DHT22;2532;52.480;13.354;2024-02-21T04:32:53;9.50;99.90
5027;DHT22;2532;52.480;13.354;2024-02-21T04:35:20;9.50;99.90
5027;DHT22;2532;52.480;13.354;2024-02-21T04:37:47;9.50;99.90
5027;DHT22;2532;52.480;13.354;2024-02-21T04:40:14;9.50;99.90
5027;DHT22;2532;52.480;13.354;2024-02-21T04:42:44;9.50;99.90
5027;DHT22;2532;52.480;13.354;2024-02-21T04:45:11;9.50;99.90
5027;DHT22;2532;52.480;13.354;2024-02-21T04:47:38;9.50;99.90
5027;DHT22;2532;52.480;13.354;2024-02-21T04:50:06;9.50;99.90
5027;DHT22;2532;52.480;13.354;2024-02-21T04:52:33;9.50;99.90
5027;DHT22;2532;52.480;13.354;2024-02-21T04:55:00;9.50;99.90
5027;DHT22;2532;52.480;13.354;2024-02-21T04:57:27;9.50;99.90
5027;DHT22;2532;52.480;13.354;2024-02-21T04:59:55;9.50;99.90
5027;DHT22;2532;52.480;13.354;2024-02-21T05:02:22;9.50;99.90
5027;DHT22;2532;52.480;13.354;2024-02-21T05:04:49;9.50;99.90
5027;DHT22;2532;52.480;13.354;2024-02-21T05:07:17;9.50;99.90
5027;DHT22;2532;52.480;13.354;2024-02-21T05:09:45;9.50;99.90
5027;DHT22;2532;52.480;13.354;2024-02-21T05:12:12;9.50;99.90
5027;DHT22;2532;52.480;13.354;2024-02-21T05:14:39;9.50;99.90
5027;DHT22;2532;52.480;13.354;2024-02-21T05:17:07;9.50;99.90
5027;DHT22;2532;52.480;13.354;2024-02-21T05:19:34;9.50;99.90
5027;DHT22;2532;52.480;13.354;2024-02-21T05:22:01;9.50;99.90
5027;DHT22;2532;52.480;13.354;2024-02-21T05:24:28;9.60;99.90
5027;DHT22;2532;52.480;13.354;2024-02-21T05:26:56;9.50;99.90
5027;DHT22;2532;52.480;13.354;2024-02-21T05:29:25;9.60;99.90
5027;DHT22;2532;52.480;13.354;2024-02-21T05:31:56;9.60;99.90
5027;DHT22;2532;52.480;13.354;2024-02-21T05:34:25;9.60;99.90
5027;DHT22;2532;52.480;13.354;2024-02-21T05:36:53;9.60;99.90
5027;DHT22;2532;52.480;13.354;2024-02-21T05:39:20;9.60;99.90
5027;DHT22;2532;52.480;13.354;2024-02-21T05:41:49;9.60;99.90
5027;DHT22;2532;52.480;13.354;2024-02-21T05:44:17;9.60;99.90
5027;DHT22;2532;52.480;13.354;2024-02-21T05:46:44;9.60;99.90
5027;DHT22;2532;52.480;13.354;2024-02-21T05:49:12;9.60;99.90
5027;DHT22;2532;52.480;13.354;2024-02-21T05:51:44;9.60;99.90
5027;DHT22;2532;52.480;13.354;2024-02-21T05:54:11;9.50;99.90
5027;DHT22;2532;52.480;13.354;2024-02-21T05:56:39;9.50;99.90
5027;DHT22;2532;52.480;13.354;2024-02-21T05:59:06;9.50;99.90
5027;DHT22;2532;52.480;13.354;2024-02-21T06:01:33;9.60;99.90
5027;DHT22;2532;52.480;13.354;2024-02-21T06:04:00;9.60;99.90
5027;DHT22;2532;52.480;13.354;2024-02-21T06:06:27;9.60;99.90
5027;DHT22;2532;52.480;13.354;2024-02-21T06:08:55;9.60;99.90
5027;DHT22;2532;52.480;13.354;2024-02-21T06:11:24;9.60;99.90
5027;DHT22;2532;52.480;13.354;2024-02-21T06:13:54;9.60;99.90
5027;DHT22;2532;52.480;13.354;2024-02-21T06:16:21;9.60;99.90
5027;DHT22;2532;52.480;13.354;2024-02-21T06:18:48;9.60;99.90
5027;DHT22;2532;52.480;13.354;2024-02-21T06:21:15;9.60;99.90
5027;DHT22;2532;52.480;13.354;2024-02-21T06:23:43;9.60;99.90
5027;DHT22;2532;52.480;13.354;2024-02-21T06:26:12;9.60;99.90
5027;DHT22;2532;52.480;13.354;2024-02-21T06:28:38;9.60;99.90
5027;DHT22;2532;52.480;13.354;2024-02-21T06:31:05;9.60;99.90
5027;DHT22;2532;52.480;13.354;2024-02-21T06:33:33;9.60;99.90
5027;DHT22;2532;52.480;13.354;2024-02-21T06:36:00;9.60;99.90
5027;DHT22;2532;52.480;13.354;2024-02-21T06:38:27;9.60;99.90
5027;DHT22;2532;52.480;13.354;2024-02-21T06:40:54;9.60;99.90
5027;DHT22;2532;52.480;13.354;2024-02-21T06:43:23;9.60;99.90
5027;DHT22;2532;52.480;13.354;2024-02-21T06:45:50;9.70;99.90
5027;DHT22;2532;52.480;13.354;2024-02-21T06:48:17;9.70;99.90
5027;DHT22;2532;52.480;13.354;2024-02-21T06:50:45;9.70;99.90
5027;DHT22;2532;52.480;13.354;2024-02-21T06:53:12;9.70;99.90
5027;DHT22;2532;52.480;13.354;2024-02-21T06:55:39;9.70;99.90
5027;DHT22;2532;52.480;13.354;2024-02-21T06:58:06;9.70;99.90
5027;DHT22;2532;52.480;13.354;2024-02-21T07:00:38;9.70;99.90
5027;DHT22;2532;52.480;13.354;2024-02-21T07:03:06;9.80;99.90
5027;DHT22;2532;52.480;13.354;2024-02-21T07:05:33;9.80;99.90
5027;DHT22;2532;52.480;13.354;2024-02-21T07:08:00;9.80;99.90
5027;DHT22;2532;52.480;13.354;2024-02-21T07:10:27;9.80;99.90
5027;DHT22;2532;52.480;13.354;2024-02-21T07:12:54;9.80;99.90
5027;DHT22;2532;52.480;13.354;2024-02-21T07:15:21;9.80;99.90
5027;DHT22;2532;52.480;13.354;2024-02-21T07:17:53;9.80;99.90
5027;DHT22;2532;52.480;13.354;2024-02-21T07:20:20;9.80;99.90
5027;DHT22;2532;52.480;13.354;2024-02-21T07:22:48;9.80;99.90
5027;DHT22;2532;52.480;13.354;2024-02-21T07:25:15;9.90;99.90
5027;DHT22;2532;52.480;13.354;2024-02-21T07:27:43;9.90;99.90
5027;DHT22;2532;52.480;13.354;2024-02-21T07:30:11;9.90;99.90
5027;DHT22;2532;52.480;13.354;2024-02-21T07:32:38;9.90;99.90
5027;DHT22;2532;52.480;13.354;2024-02-21T07:35:07;9.90;99.90
5027;DHT22;2532;52.480;13.354;2024-02-21T07:37:37;9.90;99.90
5027;DHT22;2532;52.480;13.354;2024-02-21T07:40:06;10.00;99.90
5027;DHT22;2532;52.480;13.354;2024-02-21T07:42:33;9.90;99.90
5027;DHT22;2532;52.480;13.354;2024-02-21T07:45:01;10.00;99.90
5027;DHT22;2532;52.480;13.354;2024-02-21T07:47:28;10.00;99.90
5027;DHT22;2532;52.480;13.354;2024-02-21T07:49:55;10.00;99.90
5027;DHT22;2532;52.480;13.354;2024-02-21T07:52:24;10.00;99.90
5027;DHT22;2532;52.480;13.354;2024-02-21T07:54:51;9.90;99.90
5027;DHT22;2532;52.480;13.354;2024-02-21T07:57:18;9.90;99.90
5027;DHT22;2532;52.480;13.354;2024-02-21T07:59:47;9.90;99.90
5027;DHT22;2532;52.480;13.354;2024-02-21T08:02:15;9.90;99.90
5027;DHT22;2532;52.480;13.354;2024-02-21T08:04:42;9.90;99.90
5027;DHT22;2532;52.480;13.354;2024-02-21T08:07:10;10.00;99.90
5027;DHT22;2532;52.480;13.354;2024-02-21T08:09:39;10.00;99.90
5027;DHT22;2532;52.480;13.354;2024-02-21T08:12:07;10.00;99.90
5027;DHT22;2532;52.480;13.354;2024-02-21T08:14:35;10.00;99.90
5027;DHT22;2532;52.480;13.354;2024-02-21T08:17:03;10.00;99.90
5027;DHT22;2532;52.480;13.354;2024-02-21T08:19:30;10.00;99.90
5027;DHT22;2532;52.480;13.354;2024-02-21T08:21:58;10.00;99.90
5027;DHT22;2532;52.480;13.354;2024-02-21T08:24:26;10.10;99.90
5027;DHT22;2532;52.480;13.354;2024-02-21T08:26:55;10.10;99.90
5027;DHT22;2532;52.480;13.354;2024-02-21T08:29:23;10.10;99.90
5027;DHT22;2532;52.480;13.354;2024-02-21T08:31:50;10.10;99.90
5027;DHT22;2532;52.480;13.354;2024-02-21T08:34:17;10.20;99.90
5027;DHT22;2532;52.480;13.354;2024-02-21T08:36:45;10.20;99.90
5027;DHT22;2532;52.480;13.354;2024-02-21T08:39:12;10.30;99.90
5027;DHT22;2532;52.480;13.354;2024-02-21T08:41:44;10.30;99.90
5027;DHT22;2532;52.480;13.354;2024-02-21T08:44:16;10.40;99.90
5027;DHT22;2532;52.480;13.354;2024-02-21T08:46:43;10.40;99.90
5027;DHT22;2532;52.480;13.354;2024-02-21T08:49:13;10.40;99.90
5027;DHT22;2532;52.480;13.354;2024-02-21T08:51:40;10.40;99.90
5027;DHT22;2532;52.480;13.354;2024-02-21T08:54:08;10.50;99.90
5027;DHT22;2532;52.480;13.354;2024-02-21T08:56:36;10.50;99.90
5027;DHT22;2532;52.480;13.354;2024-02-21T08:59:03;10.60;99.90
5027;DHT22;2532;52.480;13.354;2024-02-21T09:01:32;10.70;99.90
5027;DHT22;2532;52.480;13.354;2024-02-21T09:04:00;10.70;99.90
5027;DHT22;2532;52.480;13.354;2024-02-21T09:06:28;10.80;99.90
5027;DHT22;2532;52.480;13.354;2024-02-21T09:08:56;10.80;99.90
5027;DHT22;2532;52.480;13.354;2024-02-21T09:11:24;10.80;99.90
5027;DHT22;2532;52.480;13.354;2024-02-21T09:13:53;10.90;99.90
5027;DHT22;2532;52.480;13.354;2024-02-21T09:16:20;10.90;99.90
5027;DHT22;2532;52.480;13.354;2024-02-21T09:18:49;10.90;99.90
5027;DHT22;2532;52.480;13.354;2024-02-21T09:21:18;10.90;99.90
5027;DHT22;2532;52.480;13.354;2024-02-21T09:23:45;10.90;99.90
5027;DHT22;2532;52.480;13.354;2024-02-21T09:26:13;10.90;99.90
5027;DHT22;2532;52.480;13.354;2024-02-21T09:28:43;11.00;99.90
5027;DHT22;2532;52.480;13.354;2024-02-21T09:31:11;11.00;99.90
5027;DHT22;2532;52.480;13.354;2024-02-21T09:33:38;11.00;99.90
5027;DHT22;2532;52.480;13.354;2024-02-21T09:36:07;11.00;99.90
5027;DHT22;2532;52.480;13.354;2024-02-21T09:38:35;11.00;99.90
5027;DHT22;2532;52.480;13.354;2024-02-21T09:41:14;11.10;99.90
5027;DHT22;2532;52.480;13.354;2024-02-21T09:43:42;11.10;99.90
5027;DHT22;2532;52.480;13.354;2024-02-21T09:46:15;11.10;99.90
5027;DHT22;2532;52.480;13.354;2024-02-21T09:48:57;11.10;99.90
5027;DHT22;2532;52.480;13.354;2024-02-21T09:51:30;11.20;99.90
5027;DHT22;2532;52.480;13.354;2024-02-21T09:54:00;11.20;99.90
5027;DHT22;2532;52.480;13.354;2024-02-21T09:56:28;11.20;99.90
5027;DHT22;2532;52.480;13.354;2024-02-21T09:58:57;11.30;99.90
5027;DHT22;2532;52.480;13.354;2024-02-21T10:01:24;11.40;99.90
5027;DHT22;2532;52.480;13.354;2024-02-21T10:03:51;11.40;99.90
5027;DHT22;2532;52.480;13.354;2024-02-21T10:06:19;11.40;99.90
5027;DHT22;2532;52.480;13.354;2024-02-21T10:08:53;11.40;99.90
5027;DHT22;2532;52.480;13.354;2024-02-21T10:11:24;11.40;99.90
5027;DHT22;2532;52.480;13.354;2024-02-21T10:14:02;11.40;99.90
5027;DHT22;2532;52.480;13.354;2024-02-21T10:16:35;11.40;99.90
5027;DHT22;2532;52.480;13.354;2024-02-21T10:19:03;11.50;99.90
5027;DHT22;2532;52.480;13.354;2024-02-21T10:21:30;11.50;99.90
5027;DHT22;2532;52.480;13.354;2024-02-21T10:23:59;11.50;99.90
5027;DHT22;2532;52.480;13.354;2024-02-21T10:26:28;11.50;99.90
5027;DHT22;2532;52.480;13.354;2024-02-21T10:28:55;11.50;99.90
5027;DHT22;2532;52.480;13.354;2024-02-21T10:35:04;11.50;99.90
5027;DHT22;2532;52.480;13.354;2024-02-21T10:37:35;11.60;99.90
5027;DHT22;2532;52.480;13.354;2024-02-21T10:40:05;11.50;99.90
5027;DHT22;2532;52.480;13.354;2024-02-21T10:42:34;11.50;99.90
5027;DHT22;2532;52.480;13.354;2024-02-21T10:45:05;11.50;99.90
5027;DHT22;2532;52.480;13.354;2024-02-21T10:47:35;11.50;99.90
5027;DHT22;2532;52.480;13.354;2024-02-21T10:50:05;11.50;99.90
5027;DHT22;2532;52.480;13.354;2024-02-21T10:52:44;11.60;99.90
5027;DHT22;2532;52.480;13.354;2024-02-21T10:55:20;11.60;99.90
5027;DHT22;2532;52.480;13.354;2024-02-21T10:57:50;11.60;99.90
5027;DHT22;2532;52.480;13.354;2024-02-21T11:00:18;11.60;99.90
5027;DHT22;2532;52.480;13.354;2024-02-21T11:02:46;11.60;99.90
5027;DHT22;2532;52.480;13.354;2024-02-21T11:05:15;11.60;99.90
5027;DHT22;2532;52.480;13.354;2024-02-21T11:07:43;11.60;99.90
5027;DHT22;2532;52.480;13.354;2024-02-21T11:10:23;11.70;99.90
5027;DHT22;2532;52.480;13.354;2024-02-21T11:12:53;11.70;99.90
5027;DHT22;2532;52.480;13.354;2024-02-21T11:15:25;11.70;99.90
5027;DHT22;2532;52.480;13.354;2024-02-21T11:17:57;11.80;99.90
5027;DHT22;2532;52.480;13.354;2024-02-21T11:20:32;11.80;99.90
5027;DHT22;2532;52.480;13.354;2024-02-21T11:23:00;11.80;99.90
5027;DHT22;2532;52.480;13.354;2024-02-21T11:25:30;11.90;99.90
5027;DHT22;2532;52.480;13.354;2024-02-21T11:28:00;12.00;99.90
5027;DHT22;2532;52.480;13.354;2024-02-21T11:30:29;12.00;99.90
5027;DHT22;2532;52.480;13.354;2024-02-21T11:33:01;12.10;99.90
5027;DHT22;2532;52.480;13.354;2024-02-21T11:35:33;12.10;99.90
5027;DHT22;2532;52.480;13.354;2024-02-21T11:38:11;12.20;99.90
5027;DHT22;2532;52.480;13.354;2024-02-21T11:40:44;12.30;99.90
5027;DHT22;2532;52.480;13.354;2024-02-21T11:43:11;12.40;99.90
5027;DHT22;2532;52.480;13.354;2024-02-21T11:45:39;12.50;99.90
5027;DHT22;2532;52.480;13.354;2024-02-21T11:48:07;12.60;99.90
5027;DHT22;2532;52.480;13.354;2024-02-21T11:50:35;12.60;99.60
5027;DHT22;2532;52.480;13.354;2024-02-21T11:53:03;12.70;99.50
5027;DHT22;2532;52.480;13.354;2024-02-21T11:55:30;12.80;99.40
5027;DHT22;2532;52.480;13.354;2024-02-21T11:58:00;12.80;99.20
5027;DHT22;2532;52.480;13.354;2024-02-21T12:00:27;12.80;99.30
5027;DHT22;2532;52.480;13.354;2024-02-21T12:02:55;12.80;99.20
5027;DHT22;2532;52.480;13.354;2024-02-21T12:05:27;12.90;99.10
5027;DHT22;2532;52.480;13.354;2024-02-21T12:07:56;13.00;98.90
5027;DHT22;2532;52.480;13.354;2024-02-21T12:10:25;13.10;98.80
5027;DHT22;2532;52.480;13.354;2024-02-21T12:12:53;13.20;98.80
5027;DHT22;2532;52.480;13.354;2024-02-21T12:15:25;13.30;98.50
5027;DHT22;2532;52.480;13.354;2024-02-21T12:17:53;13.40;98.50
5027;DHT22;2532;52.480;13.354;2024-02-21T12:20:21;13.40;98.50
5027;DHT22;2532;52.480;13.354;2024-02-21T12:22:52;13.50;98.40
5027;DHT22;2532;52.480;13.354;2024-02-21T12:25:22;13.60;97.90
5027;DHT22;2532;52.480;13.354;2024-02-21T12:27:52;13.60;98.00
5027;DHT22;2532;52.480;13.354;2024-02-21T12:30:19;13.60;97.90
5027;DHT22;2532;52.480;13.354;2024-02-21T12:32:48;13.70;98.00
5027;DHT22;2532;52.480;13.354;2024-02-21T12:35:16;13.70;97.90
5027;DHT22;2532;52.480;13.354;2024-02-21T12:37:45;13.70;97.70
5027;DHT22;2532;52.480;13.354;2024-02-21T12:40:12;13.70;97.60
5027;DHT22;2532;52.480;13.354;2024-02-21T12:42:44;13.70;97.70
5027;DHT22;2532;52.480;13.354;2024-02-21T12:45:11;13.70;97.70
5027;DHT22;2532;52.480;13.354;2024-02-21T12:47:41;13.60;97.60
5027;DHT22;2532;52.480;13.354;2024-02-21T12:50:10;13.60;97.70
5027;DHT22;2532;52.480;13.354;2024-02-21T12:52:37;13.60;97.60
5027;DHT22;2532;52.480;13.354;2024-02-21T12:55:05;13.70;97.60
5027;DHT22;2532;52.480;13.354;2024-02-21T12:57:34;13.60;97.60
5027;DHT22;2532;52.480;13.354;2024-02-21T13:00:03;13.60;97.60
5027;DHT22;2532;52.480;13.354;2024-02-21T13:02:34;13.70;97.50
5027;DHT22;2532;52.480;13.354;2024-02-21T13:05:02;13.70;97.40
5027;DHT22;2532;52.480;13.354;2024-02-21T13:07:30;13.80;97.30
5027;DHT22;2532;52.480;13.354;2024-02-21T13:10:01;13.70;97.30
5027;DHT22;2532;52.480;13.354;2024-02-21T13:12:29;13.70;97.30
5027;DHT22;2532;52.480;13.354;2024-02-21T13:14:56;13.70;97.40
5027;DHT22;2532;52.480;13.354;2024-02-21T13:17:24;13.70;97.60
5027;DHT22;2532;52.480;13.354;2024-02-21T13:19:56;13.80;97.40
5027;DHT22;2532;52.480;13.354;2024-02-21T13:22:23;13.80;97.30
5027;DHT22;2532;52.480;13.354;2024-02-21T13:24:54;13.80;97.30
5027;DHT22;2532;52.480;13.354;2024-02-21T13:27:21;13.80;97.30
5027;DHT22;2532;52.480;13.354;2024-02-21T13:29:48;13.80;97.30
5027;DHT22;2532;52.480;13.354;2024-02-21T13:32:16;13.80;97.10
5027;DHT22;2532;52.480;13.354;2024-02-21T13:34:44;13.80;97.10
5027;DHT22;2532;52.480;13.354;2024-02-21T13:37:11;13.80;97.20
5027;DHT22;2532;52.480;13.354;2024-02-21T13:39:39;13.80;97.10
5027;DHT22;2532;52.480;13.354;2024-02-21T13:42:08;13.70;96.80
5027;DHT22;2532;52.480;13.354;2024-02-21T13:44:35;13.70;97.00
5027;DHT22;2532;52.480;13.354;2024-02-21T13:47:03;13.70;97.20
5027;DHT22;2532;52.480;13.354;2024-02-21T13:49:33;13.70;97.20
5027;DHT22;2532;52.480;13.354;2024-02-21T13:52:01;13.60;97.10
5027;DHT22;2532;52.480;13.354;2024-02-21T13:54:28;13.70;97.00
5027;DHT22;2532;52.480;13.354;2024-02-21T13:56:55;13.60;96.80
5027;DHT22;2532;52.480;13.354;2024-02-21T13:59:24;13.60;97.00
5027;DHT22;2532;52.480;13.354;2024-02-21T14:01:52;13.60;97.00
5027;DHT22;2532;52.480;13.354;2024-02-21T14:04:19;13.70;97.00
5027;DHT22;2532;52.480;13.354;2024-02-21T14:06:47;13.70;96.70
5027;DHT22;2532;52.480;13.354;2024-02-21T14:09:14;13.70;96.50
5027;DHT22;2532;52.480;13.354;2024-02-21T14:11:41;13.70;96.40
5027;DHT22;2532;52.480;13.354;2024-02-21T14:14:09;13.70;96.50
5027;DHT22;2532;52.480;13.354;2024-02-21T14:16:38;13.70;96.30
5027;DHT22;2532;52.480;13.354;2024-02-21T14:19:05;13.70;96.30
5027;DHT22;2532;52.480;13.354;2024-02-21T14:21:34;13.70;96.30
5027;DHT22;2532;52.480;13.354;2024-02-21T14:24:03;13.70;96.30
5027;DHT22;2532;52.480;13.354;2024-02-21T14:26:30;13.70;96.40
5027;DHT22;2532;52.480;13.354;2024-02-21T14:28:58;13.80;96.50
5027;DHT22;2532;52.480;13.354;2024-02-21T14:31:25;13.80;96.40
5027;DHT22;2532;52.480;13.354;2024-02-21T14:33:53;13.90;96.50
5027;DHT22;2532;52.480;13.354;2024-02-21T14:36:20;13.90;96.50
5027;DHT22;2532;52.480;13.354;2024-02-21T14:38:49;13.90;96.40
5027;DHT22;2532;52.480;13.354;2024-02-21T14:41:18;13.90;96.40
5027;DHT22;2532;52.480;13.354;2024-02-21T14:43:45;13.90;96.40
5027;DHT22;2532;52.480;13.354;2024-02-21T14:46:12;13.90;96.20
5027;DHT22;2532;52.480;13.354;2024-02-21T14:48:39;13.90;96.20
5027;DHT22;2532;52.480;13.354;2024-02-21T14:51:08;13.80;96.20
5027;DHT22;2532;52.480;13.354;2024-02-21T14:53:35;13.80;96.00
5027;DHT22;2532;52.480;13.354;2024-02-21T14:56:02;13.70;96.00
5027;DHT22;2532;52.480;13.354;2024-02-21T14:58:29;13.70;96.20
5027;DHT22;2532;52.480;13.354;2024-02-21T15:00:56;13.70;96.20
5027;DHT22;2532;52.480;13.354;2024-02-21T15:03:24;13.70;96.20
5027;DHT22;2532;52.480;13.354;2024-02-21T15:05:53;13.60;96.20
5027;DHT22;2532;52.480;13.354;2024-02-21T15:08:26;13.60;96.30
5027;DHT22;2532;52.480;13.354;2024-02-21T15:10:53;13.60;96.50
5027;DHT22;2532;52.480;13.354;2024-02-21T15:13:20;13.60;96.50
5027;DHT22;2532;52.480;13.354;2024-02-21T15:15:48;13.60;96.40
5027;DHT22;2532;52.480;13.354;2024-02-21T15:18:17;13.60;96.40
5027;DHT22;2532;52.480;13.354;2024-02-21T15:20:44;13.60;96.40
5027;DHT22;2532;52.480;13.354;2024-02-21T15:23:11;13.70;96.40
5027;DHT22;2532;52.480;13.354;2024-02-21T15:25:40;13.70;96.30
5027;DHT22;2532;52.480;13.354;2024-02-21T15:28:09;13.70;96.30
5027;DHT22;2532;52.480;13.354;2024-02-21T15:30:36;13.70;96.10
5027;DHT22;2532;52.480;13.354;2024-02-21T15:33:03;13.70;95.90
5027;DHT22;2532;52.480;13.354;2024-02-21T15:35:30;13.60;96.30
5027;DHT22;2532;52.480;13.354;2024-02-21T15:37:58;13.60;96.00
5027;DHT22;2532;52.480;13.354;2024-02-21T15:40:25;13.50;96.10
5027;DHT22;2532;52.480;13.354;2024-02-21T15:42:53;13.50;96.20
5027;DHT22;2532;52.480;13.354;2024-02-21T15:45:21;13.40;96.20
5027;DHT22;2532;52.480;13.354;2024-02-21T15:47:48;13.40;96.30
5027;DHT22;2532;52.480;13.354;2024-02-21T15:50:16;13.30;96.30
5027;DHT22;2532;52.480;13.354;2024-02-21T15:52:45;13.30;96.30
5027;DHT22;2532;52.480;13.354;2024-02-21T15:55:12;13.30;96.20
5027;DHT22;2532;52.480;13.354;2024-02-21T15:57:39;13.20;96.30
5027;DHT22;2532;52.480;13.354;2024-02-21T16:00:09;13.20;96.20